Pagina principale
METAR-TAF:

METAR-TAF

Aeroporti :

Grenchen, Svizzera

latitudine: 47-10-53N, longitudine: 007-24-59E, altezza: 430 m

Osservazione

Il bollettino è stato emesso 17 minuti fa, alle 12:50 UTC
Vento 1 kt da direzioni variabili
Temperature 4°C
Umidità 93%
Pressione 1009 hPa
Visibilità: 4500 m
Cielo coperto ad un'altezza di 800 ft
foschia

METAR: LSZG 211250Z VRB01KT 4500 BR OVC008 04/03 Q1009 NOSIG

Ora: 14:07 (13:07 UTC)

Previsione

Il bollettino è stato emesso 1 ora e 42 minuti fa, alle 11:25 UTC
Previsione valida dal 21 alle 12 UTC al 21 alle 21 UTC
Vento 3 kt da direzioni variabili
Visibilità: 5000 m
Nuvoloso ad un'altezza di 700 ft
foschia
Evoluzione graduale
dal 21 alle 12 UTC al 21 alle 14 UTC
Nuvoloso ad un'altezza di 1100 ft
Probabilità 40%
dal 21 alle 15 UTC al 21 alle 19 UTC
Nubi sparse ad un'altezza di 1500 ft

TAF: LSZG 211125Z 2112/2121 VRB03KT 5000 BR BKN007 BECMG 2112/2114 BKN011 PROB40 2115/2119 SCT015

Osservazioni e previsioni meteorologiche di più di 4000 aeroporti (messaggi METAR e TAF).

Le stazioni disponibili sono rappresentate dai dischi gialli e rossi sulla carta.

Puntare il mouse per vedere il nome della stazione.

Clicca sopra per visualizzare le osservazioni e previsioni meteorologiche.

Per cambiare la mappa : fare clic sui pulsanti verdi con una croce nera per ingrandire, il pulsante verde con un trattino per diminuire, o sulla freccia verde per le mappe adiacenti.


METAR-TAF: